Adamsville, Alabama
Current Conditions -  °F | °C
As of 3:53 AM on Friday 28 Nov 2014 (Local Time) from KBHM Reporting Station
Clear Clear  
Wind Chill: 29°   Ceiling: Unl
Heat Index: 29°   Visibility: 10mi
Dew Point: 24°   Wind: 3mph
Humidity: 82%   Direction: 10°N
Pressure: 30.44"   Gusts: NA
Location:  33.6°N, 86.96°W
Report Text: KBHM 280953Z 01003KT 10SM CLR M02/M04 A3044 RMK AO2 SLP310 T10171044
Loading
Personal Weather Stations






























Interactive Weather Map New forecast layout! Learn more

10-Day Weather Forecast

Advertisements
Track Severe Weather on mobile